Concord Municipal Airport Concord US
ICAO: KCON
IATA: CON
Category: Medium
Scheduled Services: No

Elevation: 342 ft
TransAlt. 18000 ft.

Airport Communications:
BOSTON APP/DEP:127.35
ASOS:132.32
CLNC DEL:133.65
ARNG OPS:32.1
BANGOR RDO:122.3
CTAF/UNICOM:122.7

KCON Zoom In..

If you have problems with the map follow the link
https://www.worldairports.se/pages/airport.php?
ICAO=KCON

Runways:

(A) RW 12 length 3200 ft width 75 ft
---- / hdg 121

(B) RW 17 length 6005 ft width 100 ft
---- / hdg 171

(C) RW 30 length 3200 ft width 75 ft
---- / hdg 301

(D) RW 35 length 6005 ft width 100 ft
ILS 108.70 / hdg 351

Location; KCON
Day. 17 / Time. 01.51 Zulu
* Altimeter: 29.98
* Temperature: -03° c. -26.6°f.
* Wind from: 310° Speed 17 kn with Gusts up to 23 kn.
Dewpoint: -09° c.
Visibility: 10 Statute Miles.
Clouds: Overcast 3700 ft.

KCON 170151Z AUTO 31017G23KT 10SM OVC037 M03/M09 A2998 RMK AO2 PK WND 32029/0132 SLP155 T10281089


Wind From 310°
Speed 17 kn.

 
 
jpsmedia worldairports.se 2020   terms of use